createdAt,value
2019-01-25T00:01:54.098Z,15.97
2019-01-25T00:11:57.770Z,12.87
2019-01-25T00:22:01.350Z,13.03
2019-01-25T00:32:04.970Z,10.53
2019-01-25T00:42:08.538Z,11.17
2019-01-25T00:52:12.123Z,10.73
2019-01-25T01:02:15.712Z,10.67
2019-01-25T01:12:19.302Z,8.83
2019-01-25T01:22:22.882Z,11.13
2019-01-25T01:32:26.474Z,13.23
2019-01-25T01:42:30.297Z,10.13
2019-01-25T01:52:33.887Z,10.43
2019-01-25T02:02:37.455Z,7.37
2019-01-25T02:12:41.042Z,10.60
2019-01-25T02:22:44.621Z,8.40
2019-01-25T02:32:48.203Z,6.63
2019-01-25T02:42:51.767Z,5.97
2019-01-25T02:53:03.564Z,5.13
2019-01-25T03:03:00.653Z,9.70
2019-01-25T03:13:04.295Z,10.10
2019-01-25T03:23:07.884Z,7.20
2019-01-25T03:33:11.451Z,6.13
2019-01-25T03:43:15.035Z,9.83
2019-01-25T03:53:18.630Z,9.93
2019-01-25T04:03:22.203Z,8.43
2019-01-25T04:13:25.785Z,8.37
2019-01-25T04:23:29.378Z,11.07
2019-01-25T04:33:32.958Z,9.23
2019-01-25T04:43:36.534Z,7.23
2019-01-25T04:53:40.122Z,10.83
2019-01-25T05:03:43.694Z,17.33
2019-01-25T05:13:47.295Z,11.80
2019-01-25T05:23:50.862Z,8.33
2019-01-25T05:33:55.910Z,7.40
2019-01-25T05:43:59.474Z,10.17
2019-01-25T05:54:03.047Z,12.17
2019-01-25T06:04:06.628Z,11.43
2019-01-25T06:14:10.321Z,5.87
2019-01-25T06:24:13.929Z,6.67
2019-01-25T06:34:17.502Z,4.47
2019-01-25T06:44:21.078Z,7.80
2019-01-25T06:54:24.654Z,15.00
2019-01-25T07:04:28.218Z,19.00
2019-01-25T07:14:31.813Z,10.30
2019-01-25T07:24:35.382Z,12.53
2019-01-25T07:34:38.963Z,13.00
2019-01-25T07:44:42.556Z,6.60
2019-01-25T07:54:46.111Z,7.50
2019-01-25T08:04:49.687Z,8.07
2019-01-25T08:14:53.271Z,14.83
2019-01-25T08:24:56.842Z,15.13
2019-01-25T08:35:00.781Z,15.10
2019-01-25T08:45:04.917Z,24.73
2019-01-25T08:55:08.797Z,15.83
2019-01-25T09:05:13.591Z,11.00
2019-01-25T09:15:19.982Z,14.33
2019-01-25T09:25:23.541Z,12.03
2019-01-25T09:35:27.113Z,16.87
2019-01-25T09:45:30.698Z,18.60
2019-01-25T09:55:34.267Z,15.73
2019-01-25T10:05:37.835Z,10.80
2019-01-25T10:15:41.417Z,11.43
2019-01-25T10:25:44.987Z,18.57
2019-01-25T10:35:48.838Z,16.60
2019-01-25T10:45:52.413Z,11.33
2019-01-25T10:55:55.979Z,7.63
2019-01-25T11:05:59.561Z,17.20
2019-01-25T11:16:03.143Z,20.03
2019-01-25T11:26:06.706Z,14.33
2019-01-25T11:36:10.286Z,27.60
2019-01-25T11:46:14.140Z,25.83
2019-01-25T11:56:17.707Z,28.37
2019-01-25T12:06:21.266Z,28.30
2019-01-25T12:16:24.876Z,26.17
2019-01-25T12:26:28.442Z,27.80
2019-01-25T12:36:32.274Z,28.73
2019-01-25T12:46:35.842Z,29.97
2019-01-25T12:56:39.422Z,25.90
2019-01-25T13:06:43.007Z,33.50
2019-01-25T13:16:46.607Z,28.00
2019-01-25T13:26:50.182Z,35.53
2019-01-25T13:36:57.125Z,39.20
2019-01-25T13:46:59.118Z,44.47
2019-01-25T13:57:02.707Z,43.27
2019-01-25T14:07:06.623Z,44.33
2019-01-25T14:17:10.371Z,40.07
2019-01-25T14:27:13.962Z,45.70
2019-01-25T14:37:17.555Z,45.63
2019-01-25T14:47:21.138Z,55.20
2019-01-25T14:57:25.937Z,57.57
2019-01-25T15:07:29.566Z,66.47
2019-01-25T15:17:33.164Z,64.53
2019-01-25T15:27:36.754Z,60.93
2019-01-25T15:37:40.333Z,68.13
2019-01-25T15:47:43.974Z,58.00
2019-01-25T15:57:47.622Z,54.63
2019-01-25T16:07:51.220Z,57.50
2019-01-25T16:17:55.896Z,52.90
2019-01-25T16:28:03.790Z,46.93
2019-01-25T16:38:08.210Z,39.40
2019-01-25T16:48:11.878Z,48.77
2019-01-25T16:58:15.475Z,49.30
2019-01-25T17:08:20.083Z,37.80
2019-01-25T17:18:23.750Z,49.93
2019-01-25T17:28:27.408Z,43.90
2019-01-25T17:38:31.010Z,41.57
2019-01-25T17:48:34.598Z,44.27
2019-01-25T17:58:39.334Z,49.03
2019-01-25T18:08:42.953Z,50.43
2019-01-25T18:18:46.608Z,45.93
2019-01-25T18:29:05.937Z,50.13
2019-01-25T18:39:20.609Z,45.60
2019-01-25T18:49:24.194Z,46.50
2019-01-25T18:59:27.794Z,42.37
2019-01-25T19:09:31.455Z,41.53
2019-01-25T19:19:35.029Z,46.33
2019-01-25T19:29:38.610Z,45.53
2019-01-25T19:39:42.234Z,45.70
2019-01-25T19:49:45.839Z,46.50
2019-01-25T19:59:49.520Z,43.90
2019-01-25T20:09:53.182Z,50.70
2019-01-25T20:19:56.770Z,46.03
2019-01-25T20:30:00.358Z,47.73
2019-01-25T20:40:04.314Z,52.13
2019-01-25T20:50:10.971Z,54.60
2019-01-25T21:00:20.614Z,49.17
2019-01-25T21:10:24.480Z,53.83
2019-01-25T21:20:34.858Z,53.20
2019-01-25T21:30:38.463Z,60.63
2019-01-25T21:40:42.058Z,54.57
2019-01-25T21:50:46.619Z,51.40
2019-01-25T22:00:50.243Z,51.93
2019-01-25T22:10:55.050Z,45.47
2019-01-25T22:20:58.627Z,49.80
2019-01-25T22:31:02.200Z,50.60
2019-01-25T22:41:05.779Z,47.70
2019-01-25T22:51:09.367Z,38.90
2019-01-25T23:01:25.990Z,39.47
2019-01-25T23:11:29.580Z,37.57
2019-01-25T23:21:33.150Z,37.93
2019-01-25T23:31:37.506Z,34.70
2019-01-25T23:41:41.114Z,28.83
2019-01-25T23:51:44.758Z,27.73
